Time;durP1;ratioP1;P1;durP2;ratioP2;P2;SDS_P1;SDS_P2;PMS_P1;PMS_P2;Temp;Humidity;BMP_temperature;BMP_pressure;BME280_temperature;BME280_humidity;BME280_pressure;Samples;Min_cycle;Max_cycle;Signal;HPM_P1;HPM_P2
2023/06/08 00:01:44;;;;;;;9.32;7.07;;;15.10;99.90;;;14.11;100.00;97738.38;4983374;28;20038;-76
2023/06/08 00:04:12;;;;;;;7.15;6.40;;;15.10;99.90;;;14.09;100.00;97743.66;5007419;28;20077;-75
2023/06/08 00:06:41;;;;;;;11.05;6.82;;;15.10;99.90;;;14.00;100.00;97741.53;5004927;28;20046;-76
2023/06/08 00:09:08;;;;;;;7.28;6.35;;;15.10;99.90;;;13.76;100.00;97739.34;5005531;28;20054;-76
2023/06/08 00:11:37;;;;;;;7.50;5.70;;;15.00;99.90;;;13.66;100.00;97743.38;4970920;28;20050;-76
2023/06/08 00:14:04;;;;;;;8.40;7.05;;;14.80;99.90;;;13.73;100.00;97746.47;5008430;28;20046;-76
2023/06/08 00:16:33;;;;;;;13.82;6.93;;;14.70;99.90;;;13.79;100.00;97754.81;5001738;28;20127;-76
2023/06/08 00:19:02;;;;;;;8.90;6.95;;;14.70;99.90;;;13.93;100.00;97753.25;5002370;28;20116;-76
2023/06/08 00:21:33;;;;;;;9.85;7.22;;;14.80;99.90;;;13.86;100.00;97752.72;5002840;28;20074;-76
2023/06/08 00:24:00;;;;;;;8.27;6.45;;;14.80;99.90;;;13.81;100.00;97750.34;5003026;28;20066;-76
2023/06/08 00:26:27;;;;;;;9.98;7.07;;;14.90;99.90;;;13.75;100.00;97755.06;4995080;28;20097;-75
2023/06/08 00:28:55;;;;;;;8.43;6.90;;;14.80;99.90;;;13.78;100.00;97757.53;5007533;28;20046;-75
2023/06/08 00:31:22;;;;;;;9.32;6.45;;;14.80;99.90;;;13.60;100.00;97751.50;5007937;28;20050;-75
2023/06/08 00:33:49;;;;;;;7.85;7.05;;;14.70;99.90;;;13.52;100.00;97745.81;4989679;28;20050;-76
2023/06/08 00:36:17;;;;;;;7.45;6.18;;;14.70;99.90;;;13.43;100.00;97744.53;5010242;28;20144;-76
2023/06/08 00:38:44;;;;;;;8.32;7.43;;;14.60;99.90;;;13.37;100.00;97743.09;4997794;28;20137;-76
2023/06/08 00:41:11;;;;;;;11.85;6.97;;;14.50;99.90;;;13.38;100.00;97746.53;4990061;28;20086;-76
2023/06/08 00:43:38;;;;;;;10.02;7.10;;;14.50;99.90;;;13.37;100.00;97744.88;4999186;28;20479;-76
2023/06/08 00:46:07;;;;;;;11.82;7.15;;;14.40;99.90;;;13.32;100.00;97746.84;4999169;28;20081;-76
2023/06/08 00:48:35;;;;;;;10.57;6.97;;;14.40;99.90;;;13.30;100.00;97749.53;4980178;28;20050;-77
2023/06/08 00:51:02;;;;;;;9.10;7.75;;;14.40;99.90;;;13.46;100.00;97754.81;5006801;28;20129;-76
2023/06/08 00:53:31;;;;;;;8.48;7.35;;;14.40;99.90;;;13.56;100.00;97763.00;4990166;28;20042;-77
2023/06/08 00:55:59;;;;;;;8.13;6.82;;;14.50;99.90;;;13.57;100.00;97762.94;5008730;28;20070;-76
2023/06/08 00:58:28;;;;;;;8.43;6.82;;;14.50;99.90;;;13.70;100.00;97755.31;5011253;28;20050;-76
2023/06/08 01:01:04;;;;;;;8.93;7.50;;;14.60;99.90;;;13.66;100.00;97759.00;5009082;28;20046;-76
2023/06/08 01:03:38;;;;;;;9.68;7.55;;;14.60;99.90;;;13.63;100.00;97755.72;4997704;28;20486;-75
2023/06/08 01:06:08;;;;;;;9.95;6.78;;;14.70;99.90;;;13.61;100.00;97758.38;4995408;28;20142;-75
2023/06/08 01:09:23;;;;;;;10.43;7.15;;;14.60;99.90;;;13.60;100.00;97759.31;4995940;28;20136;-76
2023/06/08 01:12:15;;;;;;;10.52;7.53;;;14.60;99.90;;;13.63;100.00;97759.16;5008103;28;20061;-75
2023/06/08 01:15:08;;;;;;;10.43;7.43;;;14.60;99.90;;;13.60;100.00;97760.16;4970516;28;20157;-76
2023/06/08 01:17:52;;;;;;;7.85;7.05;;;14.60;99.90;;;13.54;100.00;97757.03;5011354;28;20300;-76
2023/06/08 01:20:36;;;;;;;8.82;6.60;;;14.60;99.90;;;13.46;100.00;97761.81;4992126;28;20483;-76
2023/06/08 01:23:44;;;;;;;9.32;7.10;;;14.50;99.90;;;13.37;100.00;97758.75;5008214;28;20208;-76
2023/06/08 01:26:15;;;;;;;10.55;7.93;;;14.50;99.90;;;13.39;100.00;97767.31;5011821;28;20050;-76
2023/06/08 01:28:50;;;;;;;9.43;7.90;;;14.40;99.90;;;13.38;100.00;97762.19;4995783;28;20060;-76
2023/06/08 01:31:17;;;;;;;10.85;8.10;;;14.40;99.90;;;13.31;100.00;97764.25;4987191;28;20057;-76
2023/06/08 01:33:44;;;;;;;9.38;8.02;;;14.40;99.90;;;13.29;100.00;97757.44;4989821;28;20112;-76
2023/06/08 01:36:33;;;;;;;8.75;7.78;;;14.30;99.90;;;13.28;100.00;97756.59;5006118;28;20640;-75
2023/06/08 01:39:48;;;;;;;12.18;8.82;;;14.30;99.90;;;13.28;100.00;97758.38;4984073;28;20049;-76
2023/06/08 01:42:19;;;;;;;8.90;7.60;;;14.30;99.90;;;13.26;100.00;97758.41;4979759;28;20054;-75
2023/06/08 01:45:19;;;;;;;8.90;7.47;;;14.30;99.90;;;13.26;100.00;97752.34;4993701;28;20064;-75
2023/06/08 01:47:56;;;;;;;10.48;7.05;;;14.30;99.90;;;13.26;100.00;97757.56;4994044;28;20150;-76
2023/06/08 01:50:25;;;;;;;9.52;7.78;;;14.30;99.90;;;13.21;100.00;97751.75;4980938;28;20085;-75
2023/06/08 01:52:55;;;;;;;9.13;7.75;;;14.30;99.90;;;13.22;100.00;97756.03;4990437;28;20046;-76
2023/06/08 01:55:24;;;;;;;9.23;7.90;;;14.20;99.90;;;13.29;100.00;97765.25;4987071;28;20042;-76
2023/06/08 01:57:51;;;;;;;9.70;8.48;;;14.20;99.90;;;13.22;100.00;97754.25;5009191;28;20761;-76
2023/06/08 02:00:20;;;;;;;9.68;8.70;;;14.20;99.90;;;13.16;100.00;97758.03;4993764;28;20120;-75
2023/06/08 02:02:47;;;;;;;11.52;8.85;;;14.20;99.90;;;13.23;100.00;97753.34;5005082;28;20054;-75
2023/06/08 02:05:16;;;;;;;10.20;8.75;;;14.20;99.90;;;13.33;100.00;97756.38;5008588;28;20061;-76
2023/06/08 02:07:44;;;;;;;9.63;8.63;;;14.20;99.90;;;13.45;100.00;97754.88;4996610;28;20978;-76
2023/06/08 02:10:13;;;;;;;11.13;8.55;;;14.30;99.90;;;13.51;100.00;97749.38;4994017;28;20132;-76
2023/06/08 02:12:41;;;;;;;9.32;8.35;;;14.30;99.90;;;13.39;100.00;97756.91;4983950;28;20486;-75
2023/06/08 02:15:08;;;;;;;11.98;7.93;;;14.40;99.90;;;13.39;100.00;97751.69;4980676;28;20057;-75
2023/06/08 02:17:36;;;;;;;9.80;8.80;;;14.50;99.90;;;13.34;100.00;97748.47;4997562;28;20081;-76
2023/06/08 02:20:06;;;;;;;8.85;7.88;;;14.40;99.90;;;13.32;100.00;97742.50;4982242;28;20046;-76
2023/06/08 02:22:36;;;;;;;8.95;7.57;;;14.40;99.90;;;13.39;100.00;97740.41;5011752;28;20108;-75
2023/06/08 02:25:07;;;;;;;10.75;7.97;;;14.40;99.90;;;13.42;100.00;97740.25;5004761;28;20049;-76
2023/06/08 02:27:36;;;;;;;10.27;7.97;;;14.40;99.90;;;13.36;100.00;97736.22;4964409;28;20419;-76
2023/06/08 02:30:08;;;;;;;11.50;7.80;;;14.40;99.90;;;13.38;100.00;97733.50;4988848;28;20533;-76
2023/06/08 02:32:41;;;;;;;9.52;8.52;;;14.40;99.90;;;13.37;100.00;97734.44;4991434;28;20049;-76
2023/06/08 02:35:10;;;;;;;10.57;8.43;;;14.40;99.90;;;13.37;100.00;97739.66;4976066;28;20050;-75
2023/06/08 02:37:37;;;;;;;9.80;8.43;;;14.40;99.90;;;13.34;100.00;97745.00;5001816;28;20052;-76
2023/06/08 02:40:05;;;;;;;9.88;8.02;;;14.40;99.90;;;13.30;100.00;97739.13;4990734;28;20069;-76
2023/06/08 02:42:32;;;;;;;10.07;8.43;;;14.40;99.90;;;13.31;100.00;97739.97;4992018;28;20100;-76
2023/06/08 02:44:59;;;;;;;9.77;8.68;;;14.40;99.90;;;13.36;100.00;97744.03;5001952;28;20057;-76
2023/06/08 02:47:26;;;;;;;10.70;9.60;;;14.40;99.90;;;13.27;100.00;97735.78;4993319;28;20140;-76
2023/06/08 02:49:53;;;;;;;11.02;9.32;;;14.40;99.90;;;13.23;100.00;97736.84;4986072;28;20104;-75
2023/06/08 02:52:21;;;;;;;9.80;8.50;;;14.40;99.90;;;13.29;100.00;97734.81;5006577;28;20085;-75
2023/06/08 02:54:48;;;;;;;10.35;8.90;;;14.40;99.90;;;13.26;100.00;97739.31;5007942;28;20050;-76
2023/06/08 02:57:15;;;;;;;11.02;9.30;;;14.40;99.90;;;13.20;100.00;97732.63;5009764;28;20045;-76
2023/06/08 02:59:42;;;;;;;9.30;7.53;;;14.30;99.90;;;13.15;100.00;97732.03;5004494;28;20141;-76
2023/06/08 03:02:10;;;;;;;10.27;8.05;;;14.30;99.90;;;13.12;100.00;97735.66;5005569;28;20046;-75
2023/06/08 03:04:38;;;;;;;9.05;7.82;;;14.30;99.90;;;13.08;100.00;97736.72;5005266;28;20522;-75
2023/06/08 03:07:09;;;;;;;10.27;8.73;;;14.20;99.90;;;13.06;100.00;97741.16;5008121;28;20053;-75
2023/06/08 03:09:36;;;;;;;10.05;8.75;;;14.20;99.90;;;13.10;100.00;97737.47;5009990;28;20062;-75
2023/06/08 03:12:05;;;;;;;8.25;7.43;;;14.20;99.90;;;13.02;100.00;97739.63;5010649;28;20085;-75
2023/06/08 03:14:32;;;;;;;10.88;8.38;;;14.20;99.90;;;13.01;100.00;97743.16;5006693;28;20429;-76
2023/06/08 03:17:02;;;;;;;8.70;7.22;;;14.10;99.90;;;12.96;100.00;97752.97;5007255;28;20078;-76
2023/06/08 03:19:30;;;;;;;9.65;8.65;;;14.10;99.90;;;12.94;100.00;97745.22;4991473;28;20053;-76
2023/06/08 03:22:04;;;;;;;10.55;7.95;;;14.10;99.90;;;12.96;100.00;97750.38;4989750;28;20050;-76
2023/06/08 03:24:32;;;;;;;10.35;8.10;;;14.10;99.90;;;12.91;100.00;97741.94;5007940;28;20161;-76
2023/06/08 03:27:05;;;;;;;11.88;8.52;;;14.10;99.90;;;12.83;100.00;97746.66;4973948;28;20054;-76
2023/06/08 03:29:33;;;;;;;;;;;14.00;99.90;;;12.71;100.00;97735.94;5006432;28;20050;-75
2023/06/08 03:32:01;;;;;;;10.05;8.40;;;13.90;99.90;;;12.65;100.00;97733.63;4992340;28;19932;-77
2023/06/08 03:34:29;;;;;;;10.80;7.63;;;13.80;99.90;;;12.62;100.00;97736.38;4997160;28;20049;-76
2023/06/08 03:36:56;;;;;;;11.27;8.75;;;13.80;99.90;;;12.61;100.00;97744.25;5009210;28;20049;-76
2023/06/08 03:39:23;;;;;;;12.15;8.70;;;13.80;99.90;;;12.70;100.00;97743.81;4980052;28;20475;-75
2023/06/08 03:41:51;;;;;;;14.93;9.52;;;13.80;99.90;;;12.78;100.00;97739.09;4992527;28;20524;-76
2023/06/08 03:44:18;;;;;;;12.48;8.50;;;13.90;99.90;;;12.77;100.00;97743.44;5013996;28;20058;-76
2023/06/08 03:46:46;;;;;;;10.70;9.48;;;13.90;99.90;;;12.66;100.00;97745.75;5013165;28;20057;-75
2023/06/08 03:49:14;;;;;;;11.30;8.48;;;13.90;99.90;;;12.75;100.00;97739.25;5010778;28;20054;-75
2023/06/08 03:51:41;;;;;;;10.25;8.50;;;13.90;99.90;;;12.72;100.00;97745.41;5007430;28;20073;-76
2023/06/08 03:54:09;;;;;;;11.05;9.77;;;13.90;99.90;;;12.70;100.00;97744.69;4992667;28;20062;-75
2023/06/08 03:56:36;;;;;;;10.30;9.20;;;13.80;99.90;;;12.73;100.00;97754.09;4993159;28;20081;-77
2023/06/08 03:59:04;;;;;;;13.27;9.10;;;13.80;99.90;;;12.81;100.00;97754.56;5004302;28;20053;-76
2023/06/08 04:01:31;;;;;;;10.02;8.50;;;13.80;99.90;;;12.81;100.00;97753.72;4986529;28;20125;-76
2023/06/08 04:03:58;;;;;;;14.07;9.35;;;13.90;99.90;;;12.79;100.00;97745.97;4990117;28;20042;-76
2023/06/08 04:06:33;;;;;;;11.23;9.82;;;13.90;99.90;;;12.81;100.00;97743.28;4993038;28;20064;-76
2023/06/08 04:09:01;;;;;;;10.80;9.13;;;13.90;99.90;;;12.93;100.00;97745.28;5003310;28;20041;-76
2023/06/08 04:11:28;;;;;;;9.73;8.63;;;13.90;99.90;;;12.83;100.00;97744.91;5007330;28;20120;-76
2023/06/08 04:13:55;;;;;;;10.77;9.68;;;13.90;99.90;;;12.82;100.00;97743.22;5006246;28;20459;-76
2023/06/08 04:16:22;;;;;;;10.30;9.18;;;13.90;99.90;;;12.95;100.00;97740.84;5004678;28;20107;-76
2023/06/08 04:18:50;;;;;;;9.95;8.63;;;13.90;99.90;;;12.96;100.00;97739.94;5006188;28;20104;-76
2023/06/08 04:21:17;;;;;;;9.27;8.27;;;13.90;99.90;;;13.00;100.00;97732.81;4992711;28;20058;-76
2023/06/08 04:23:46;;;;;;;11.82;8.98;;;14.00;99.90;;;13.06;100.00;97724.69;5007493;28;20042;-76
2023/06/08 04:26:15;;;;;;;11.20;9.43;;;14.00;99.90;;;13.03;100.00;97723.06;4986521;28;20504;-76
2023/06/08 04:28:44;;;;;;;9.50;8.43;;;14.00;99.90;;;13.24;100.00;97730.72;4990175;28;20055;-77
2023/06/08 04:31:12;;;;;;;10.50;9.30;;;14.10;99.90;;;13.45;100.00;97732.25;4992858;28;20054;-76
2023/06/08 04:33:39;;;;;;;9.35;8.40;;;14.20;99.90;;;13.46;100.00;97717.47;4992461;28;20130;-76
2023/06/08 04:36:07;;;;;;;9.93;8.77;;;14.20;99.90;;;13.58;100.00;97714.22;4992179;28;20136;-76
2023/06/08 04:38:34;;;;;;;9.43;8.43;;;14.40;99.90;;;13.48;100.00;97711.25;5001798;28;20050;-77
2023/06/08 04:41:01;;;;;;;11.15;8.85;;;14.40;99.90;;;13.40;100.00;97705.59;4992911;28;20264;-76
2023/06/08 04:43:31;;;;;;;10.93;9.30;;;14.40;99.90;;;13.63;100.00;97703.53;4985650;28;20125;-76
2023/06/08 04:45:59;;;;;;;10.48;9.45;;;14.40;99.90;;;13.70;100.00;97708.34;5006957;28;20061;-76
2023/06/08 04:48:28;;;;;;;9.43;8.48;;;14.50;99.90;;;13.73;100.00;97702.97;5000798;28;20162;-76
2023/06/08 04:51:04;;;;;;;9.80;8.80;;;14.60;99.90;;;13.75;100.00;97701.13;4995402;28;20422;-76
2023/06/08 04:53:34;;;;;;;9.95;8.35;;;14.70;99.90;;;13.78;100.00;97706.19;4981745;28;20054;-77
2023/06/08 04:56:02;;;;;;;9.23;8.07;;;14.70;99.90;;;13.91;100.00;97709.00;5004414;28;20061;-77
2023/06/08 04:58:31;;;;;;;10.65;8.90;;;14.70;99.90;;;14.13;100.00;97706.03;4992022;28;20050;-77
2023/06/08 05:00:59;;;;;;;9.30;8.10;;;14.80;99.90;;;14.20;100.00;97704.75;4988670;28;20564;-76
2023/06/08 05:03:26;;;;;;;10.52;8.15;;;14.90;99.90;;;14.30;100.00;97699.03;4988085;28;20064;-77
2023/06/08 05:05:54;;;;;;;11.32;8.85;;;15.00;99.90;;;14.38;100.00;97692.47;5006177;28;20060;-76
2023/06/08 05:08:22;;;;;;;10.43;7.93;;;15.10;99.90;;;14.58;100.00;97698.38;5025696;28;20049;-76
2023/06/08 05:10:49;;;;;;;8.80;7.78;;;15.20;99.90;;;14.57;100.00;97689.69;4982639;28;20066;-76
2023/06/08 05:13:16;;;;;;;8.43;7.63;;;15.30;99.90;;;14.76;100.00;97689.47;4996291;28;20111;-76
2023/06/08 05:15:43;;;;;;;13.80;8.55;;;15.30;99.90;;;15.04;100.00;97690.47;5011285;28;20072;-76
2023/06/08 05:18:11;;;;;;;11.15;8.48;;;15.50;99.90;;;15.23;100.00;97685.81;5030946;28;20060;-76
2023/06/08 05:20:39;;;;;;;10.75;8.07;;;15.70;99.90;;;15.44;100.00;97686.34;5009961;28;20068;-76
2023/06/08 05:23:06;;;;;;;10.23;8.13;;;15.80;99.90;;;15.76;100.00;97680.94;5010564;28;20566;-76
2023/06/08 05:25:37;;;;;;;11.90;7.63;;;16.10;99.90;;;15.98;100.00;97664.72;4996552;28;20104;-76
2023/06/08 05:28:04;;;;;;;9.15;8.25;;;16.20;99.90;;;16.17;100.00;97653.94;5013864;28;20054;-77
2023/06/08 05:30:32;;;;;;;8.30;7.38;;;16.50;99.90;;;16.44;100.00;97637.34;4993696;28;20066;-77
2023/06/08 05:33:00;;;;;;;7.95;6.90;;;16.70;99.90;;;16.69;100.00;97615.59;4991236;28;20057;-76
2023/06/08 05:35:45;;;;;;;8.23;7.43;;;16.90;99.90;;;16.84;100.00;97609.38;4987115;28;20045;-77
2023/06/08 05:38:12;;;;;;;10.77;7.30;;;17.10;99.90;;;16.91;100.00;97605.38;4985427;28;20050;-76
2023/06/08 05:40:39;;;;;;;8.18;6.90;;;17.20;99.90;;;16.72;100.00;97584.81;4984611;28;20082;-77
2023/06/08 05:43:06;;;;;;;15.15;7.90;;;17.30;99.90;;;16.58;100.00;97566.56;4995646;28;20176;-77
2023/06/08 05:45:33;;;;;;;9.90;7.85;;;17.40;99.90;;;16.52;100.00;97562.53;5009881;28;20065;-78
2023/06/08 05:48:00;;;;;;;11.07;6.95;;;17.30;99.90;;;16.67;100.00;97549.34;5012798;28;20049;-77
2023/06/08 05:50:28;;;;;;;9.45;7.18;;;17.30;99.90;;;16.78;100.00;97548.63;5011304;28;20058;-77
2023/06/08 05:52:55;;;;;;;9.90;6.90;;;17.30;99.90;;;17.09;100.00;97542.16;4989628;28;20136;-77
2023/06/08 05:55:22;;;;;;;8.30;7.03;;;17.40;99.90;;;17.11;100.00;97540.25;4987484;28;20597;-77
2023/06/08 05:57:49;;;;;;;10.77;6.57;;;17.60;99.90;;;17.26;100.00;97533.91;4993760;28;20134;-77
2023/06/08 06:00:18;;;;;;;8.07;5.93;;;17.70;99.90;;;17.40;100.00;97530.31;4991932;28;20113;-79
2023/06/08 06:02:45;;;;;;;8.38;6.70;;;17.80;99.90;;;17.55;100.00;97523.16;5004682;28;20443;-79
2023/06/08 06:05:13;;;;;;;9.18;6.60;;;18.00;99.90;;;17.81;100.00;97521.28;4973637;28;20054;-78
2023/06/08 06:07:42;;;;;;;7.65;6.28;;;18.20;99.90;;;17.62;100.00;97523.56;4988317;28;20536;-78
2023/06/08 06:10:10;;;;;;;7.15;5.78;;;18.20;99.90;;;17.69;100.00;97517.72;4973184;28;20054;-78
2023/06/08 06:12:37;;;;;;;8.48;6.60;;;18.30;99.90;;;17.73;100.00;97521.00;4992551;28;20065;-78
2023/06/08 06:15:05;;;;;;;9.82;6.55;;;18.30;99.90;;;17.68;100.00;97507.38;4998842;28;20050;-78
2023/06/08 06:17:33;;;;;;;8.20;5.85;;;18.40;99.90;;;17.68;100.00;97515.25;4980581;28;20497;-78
2023/06/08 06:20:00;;;;;;;8.52;5.97;;;18.40;99.90;;;17.56;100.00;97507.31;4992522;28;20046;-79
2023/06/08 06:22:28;;;;;;;10.02;7.13;;;18.40;99.90;;;17.77;100.00;97511.94;4988489;28;20072;-77
2023/06/08 06:24:54;;;;;;;7.63;6.60;;;18.40;99.90;;;17.65;100.00;97508.44;5006184;28;20080;-78
2023/06/08 06:27:22;;;;;;;8.90;6.03;;;18.30;99.90;;;17.90;100.00;97519.78;5005461;28;20068;-78
2023/06/08 06:29:49;;;;;;;11.68;6.95;;;18.50;99.90;;;18.08;100.00;97509.72;4972628;28;20082;-78
2023/06/08 06:32:16;;;;;;;8.93;6.60;;;18.60;99.90;;;18.02;100.00;97508.38;5004895;28;20085;-77
2023/06/08 06:34:43;;;;;;;9.02;7.05;;;18.70;99.90;;;18.09;100.00;97511.41;5008218;28;20054;-78
2023/06/08 06:37:10;;;;;;;8.85;6.60;;;18.80;99.90;;;18.33;100.00;97508.72;4998234;28;20128;-77
2023/06/08 06:39:37;;;;;;;10.90;6.85;;;18.90;99.90;;;18.54;100.00;97509.75;4992567;28;20574;-78
2023/06/08 06:42:05;;;;;;;10.25;6.30;;;19.00;99.90;;;18.43;100.00;97514.97;4996858;28;20069;-77
2023/06/08 06:44:35;;;;;;;10.18;6.80;;;19.10;99.90;;;18.53;100.00;97505.41;5006922;28;20050;-78
2023/06/08 06:47:02;;;;;;;9.38;6.30;;;19.20;99.90;;;18.79;100.00;97516.63;5005333;28;20057;-77
2023/06/08 06:49:29;;;;;;;10.63;6.65;;;19.30;99.90;;;18.76;100.00;97514.16;4992263;28;20081;-78
2023/06/08 06:51:56;;;;;;;9.00;6.22;;;19.40;99.90;;;18.89;100.00;97518.53;5001728;28;20048;-77
2023/06/08 06:54:24;;;;;;;7.90;6.90;;;19.40;99.90;;;18.98;100.00;97518.66;5000168;28;20062;-77
2023/06/08 06:56:51;;;;;;;6.95;6.25;;;19.50;99.90;;;19.04;100.00;97513.88;4988877;28;20469;-77
2023/06/08 06:59:20;;;;;;;7.93;6.47;;;19.60;99.90;;;19.21;100.00;97514.22;5002639;28;20050;-78
2023/06/08 07:01:47;;;;;;;9.43;6.65;;;19.80;99.90;;;19.58;100.00;97513.91;4981934;28;20472;-79
2023/06/08 07:04:17;;;;;;;9.10;6.80;;;19.90;99.90;;;19.57;100.00;97498.25;4983435;28;20081;-78
2023/06/08 07:06:47;;;;;;;9.13;6.50;;;20.10;99.90;;;19.30;100.00;97506.56;4987484;28;20050;-78
2023/06/08 07:09:14;;;;;;;8.23;6.40;;;20.10;99.90;;;19.68;100.00;97506.09;4964292;28;20586;-78
2023/06/08 07:11:41;;;;;;;8.77;6.38;;;20.20;99.90;;;19.47;100.00;97503.41;4997195;28;20089;-78
2023/06/08 07:14:08;;;;;;;7.10;6.38;;;20.30;99.90;;;19.42;100.00;97500.31;4988696;28;20122;-78
2023/06/08 07:16:36;;;;;;;10.95;6.60;;;20.20;99.90;;;19.69;100.00;97488.56;5004197;28;20068;-78
2023/06/08 07:19:04;;;;;;;8.27;6.20;;;20.20;99.90;;;19.65;100.00;97498.47;4990052;28;20127;-78
2023/06/08 07:21:38;;;;;;;9.07;6.05;;;20.30;99.90;;;19.89;100.00;97489.56;4977869;28;20433;-78
2023/06/08 07:24:15;;;;;;;8.13;6.05;;;20.40;99.90;;;19.95;100.00;97478.53;4987899;28;20447;-78
2023/06/08 07:27:02;;;;;;;7.22;5.47;;;20.50;99.90;;;20.51;100.00;97487.94;5009330;28;20081;-79
2023/06/08 07:29:29;;;;;;;8.32;5.97;;;20.80;99.90;;;20.40;100.00;97488.84;5006444;28;20060;-78
2023/06/08 07:31:57;;;;;;;7.32;5.82;;;20.90;99.90;;;20.65;100.00;97495.53;5014486;28;20046;-79
2023/06/08 07:34:25;;;;;;;6.95;5.75;;;21.10;99.90;;;20.30;100.00;97491.41;5013875;28;20141;-80
2023/06/08 07:37:10;;;;;;;7.97;6.20;;;21.10;99.90;;;20.41;100.00;97487.88;5006077;28;20658;-79
2023/06/08 07:39:54;;;;;;;9.23;6.22;;;21.20;99.90;;;20.35;100.00;97483.97;5015861;28;20064;-79
2023/06/08 07:42:21;;;;;;;7.57;5.75;;;21.20;99.90;;;20.58;100.00;97486.50;5019745;28;20085;-79
2023/06/08 07:44:51;;;;;;;8.52;5.90;;;21.30;99.90;;;20.76;100.00;97477.00;4979128;28;20057;-79
2023/06/08 07:47:18;;;;;;;7.18;5.75;;;21.40;99.90;;;21.02;100.00;97476.56;4998430;28;20049;-79
2023/06/08 07:49:45;;;;;;;8.23;6.00;;;21.60;99.90;;;20.79;100.00;97478.53;5006121;28;20100;-78
2023/06/08 07:52:13;;;;;;;8.05;5.93;;;21.60;99.90;;;20.75;100.00;97475.31;5009135;28;20497;-79
2023/06/08 07:54:40;;;;;;;7.10;5.72;;;21.70;99.90;;;21.10;100.00;97474.91;4991603;28;20053;-78
2023/06/08 07:57:07;;;;;;;8.45;6.47;;;21.70;99.90;;;21.40;100.00;97465.31;4984838;28;20082;-79
2023/06/08 07:59:35;;;;;;;7.03;5.60;;;21.80;99.90;;;21.49;100.00;97467.13;4988170;28;20186;-78
2023/06/08 08:02:03;;;;;;;8.88;5.97;;;22.00;99.90;;;21.41;100.00;97466.13;4994522;28;20107;-77
2023/06/08 08:04:30;;;;;;;6.47;5.50;;;22.10;99.90;;;21.47;100.00;97463.78;4990301;28;20165;-78
2023/06/08 08:06:58;;;;;;;7.28;6.05;;;22.20;99.90;;;21.64;100.00;97461.44;5008609;28;20502;-77
2023/06/08 08:09:25;;;;;;;8.77;6.18;;;22.20;99.90;;;21.45;100.00;97457.81;5016526;28;20085;-78
2023/06/08 08:11:52;;;;;;;8.30;5.88;;;22.30;99.90;;;21.54;100.00;97456.16;4995524;28;20081;-79
2023/06/08 08:14:19;;;;;;;8.77;6.03;;;22.30;99.90;;;21.72;100.00;97461.59;5003545;28;20567;-78
2023/06/08 08:16:46;;;;;;;7.95;5.60;;;22.30;99.90;;;21.90;100.00;97444.09;5006068;28;20049;-78
2023/06/08 08:19:16;;;;;;;8.70;5.82;;;22.50;99.90;;;21.51;100.00;97441.44;4988582;28;20062;-76
2023/06/08 08:21:43;;;;;;;7.00;5.25;;;22.60;99.90;;;21.90;100.00;97440.59;4999655;28;20374;-81
2023/06/08 08:24:10;;;;;;;6.50;5.25;;;22.60;99.90;;;21.98;100.00;97434.63;4988504;28;20140;-76
2023/06/08 08:26:40;;;;;;;6.28;4.95;;;22.60;99.90;;;21.86;100.00;97433.94;5002424;28;20056;-79
2023/06/08 08:29:07;;;;;;;7.53;5.88;;;22.70;99.90;;;22.81;100.00;97433.06;5003505;28;20068;-78
2023/06/08 08:31:35;;;;;;;6.38;5.70;;;22.90;99.90;;;22.40;100.00;97436.94;4988688;28;20780;-76
2023/06/08 08:34:03;;;;;;;6.93;5.63;;;23.00;99.90;;;22.92;100.00;97438.16;5004873;28;20050;-79
2023/06/08 08:36:32;;;;;;;6.57;5.88;;;23.20;99.90;;;23.22;100.00;97427.44;4995988;28;20046;-79
2023/06/08 08:38:59;;;;;;;6.20;5.05;;;23.30;99.90;;;23.25;100.00;97429.81;5005249;28;20049;-77
2023/06/08 08:41:28;;;;;;;6.22;4.10;;;23.60;99.90;;;23.29;100.00;97429.38;4988437;28;20074;-78
2023/06/08 08:44:10;;;;;;;6.55;4.13;;;23.70;99.90;;;23.79;100.00;97425.41;5001707;28;20054;-78
2023/06/08 08:46:42;;;;;;;6.88;4.55;;;23.80;99.90;;;23.87;100.00;97422.00;4983460;28;20076;-76
2023/06/08 08:49:17;;;;;;;5.38;4.45;;;23.90;99.90;;;24.35;100.00;97424.16;4978687;28;20050;-76
2023/06/08 08:51:54;;;;;;;7.55;4.47;;;24.10;99.90;;;24.83;100.00;97414.03;5007121;28;20065;-77
2023/06/08 08:54:31;;;;;;;6.05;4.32;;;24.60;99.90;;;25.64;100.00;97420.63;4992403;28;20135;-78
2023/06/08 08:57:00;;;;;;;6.22;4.35;;;25.00;99.90;;;26.05;100.00;97415.34;5012551;28;20052;-78
2023/06/08 08:59:28;;;;;;;5.95;4.35;;;25.40;99.90;;;26.16;100.00;97416.81;4990400;28;20137;-77
2023/06/08 09:02:03;;;;;;;4.97;4.13;;;25.90;99.90;;;26.95;100.00;97414.34;5003072;28;20077;-79
2023/06/08 09:04:30;;;;;;;5.65;4.50;;;26.60;99.90;;;26.49;100.00;97417.59;5016831;28;20065;-80
2023/06/08 09:06:57;;;;;;;4.80;4.18;;;26.90;99.90;;;25.67;100.00;97418.44;4994190;28;20128;-78
2023/06/08 09:09:25;;;;;;;5.38;4.20;;;26.90;99.90;;;26.19;100.00;97412.00;4991574;28;20144;-76
2023/06/08 09:12:00;;;;;;;6.97;3.10;;;27.50;98.80;;;26.83;100.00;97406.72;5008480;28;20123;-77
2023/06/08 09:14:28;;;;;;;4.18;3.78;;;;;;;27.69;100.00;97399.63;5010635;28;20085;-79
2023/06/08 09:16:59;;;;;;;4.75;3.33;;;27.80;96.40;;;28.17;100.00;97404.78;4987152;28;20038;-77
2023/06/08 09:19:28;;;;;;;3.88;3.20;;;28.70;96.70;;;28.40;100.00;97407.38;5003473;28;20597;-77
2023/06/08 09:21:56;;;;;;;4.53;2.90;;;29.40;95.20;;;27.83;100.00;97397.19;4976632;28;20154;-77
2023/06/08 09:24:23;;;;;;;5.78;3.17;;;29.80;94.00;;;27.99;100.00;97407.75;4999775;28;20194;-77
2023/06/08 09:26:59;;;;;;;3.90;3.00;;;29.80;92.90;;;27.41;100.00;97399.28;5003736;28;20061;-78
2023/06/08 09:29:41;;;;;;;5.40;3.10;;;30.00;91.80;;;27.37;100.00;97400.69;5004857;28;20057;-77
2023/06/08 09:32:12;;;;;;;5.97;3.60;;;29.80;91.40;;;28.82;100.00;97392.59;5000687;28;20050;-79
2023/06/08 09:34:51;;;;;;;6.78;3.45;;;30.00;92.00;;;28.85;100.00;97388.72;4999266;28;20133;-78
2023/06/08 09:37:29;;;;;;;3.97;3.25;;;30.20;91.50;;;28.61;100.00;97390.66;5010381;28;20046;-77
2023/06/08 09:39:58;;;;;;;5.00;3.25;;;30.70;91.60;;;27.77;100.00;97385.41;4994206;28;20593;-77
2023/06/08 09:42:50;;;;;;;4.07;3.08;;;30.50;90.10;;;28.45;100.00;97385.47;4993692;28;20478;-77
2023/06/08 09:45:18;;;;;;;4.90;3.13;;;30.20;90.50;;;27.97;100.00;97392.94;4995820;28;20155;-78
2023/06/08 09:47:45;;;;;;;4.88;3.30;;;30.00;90.50;;;27.68;100.00;97389.13;4986960;28;20046;-78
2023/06/08 09:50:13;;;;;;;5.68;3.35;;;29.30;91.20;;;28.67;100.00;97389.09;4999954;28;20800;-78
2023/06/08 09:52:42;;;;;;;3.85;2.88;;;29.60;91.10;;;28.84;100.00;97382.53;5004083;28;20043;-77
2023/06/08 09:55:10;;;;;;;6.57;3.42;;;29.80;90.90;;;29.72;100.00;97383.41;4979523;28;20046;-78
2023/06/08 09:57:39;;;;;;;4.88;3.20;;;30.20;90.80;;;28.70;100.00;97373.53;5002333;28;20106;-77
2023/06/08 10:00:17;;;;;;;5.03;2.95;;;30.50;88.20;;;29.22;100.00;97376.22;4994760;28;20105;-78
2023/06/08 10:03:21;;;;;;;3.42;2.75;;;30.50;86.80;;;30.55;100.00;97377.47;5004432;28;20151;-78
2023/06/08 10:05:49;;;;;;;3.47;2.85;;;30.70;87.20;;;30.03;100.00;97369.63;5000333;28;20129;-77
2023/06/08 10:08:21;;;;;;;3.55;3.00;;;31.10;86.40;;;28.39;100.00;97379.00;4983652;28;20042;-77
2023/06/08 10:10:49;;;;;;;5.88;3.33;;;30.60;85.80;;;27.59;100.00;97377.69;4987372;28;20076;-78
2023/06/08 10:13:17;;;;;;;4.15;2.85;;;29.50;86.10;;;27.32;100.00;97373.72;4996062;28;20739;-77
2023/06/08 10:15:45;;;;;;;3.72;2.88;;;28.60;87.90;;;26.98;100.00;97377.53;5004334;28;20104;-77
2023/06/08 10:18:23;;;;;;;5.53;2.53;;;28.00;90.00;;;27.92;100.00;97372.16;5102039;27;20988;-77
2023/06/08 10:20:52;;;;;;;3.40;2.53;;;28.30;90.00;;;27.97;100.00;97368.94;5070066;28;20141;-78
2023/06/08 10:23:20;;;;;;;3.88;3.30;;;28.60;90.10;;;29.12;100.00;97363.19;5055586;28;20485;-77